sensor_id;sensor_type;location;lat;lon;timestamp;pressure;altitude;pressure_sealevel;temperature;humidity
43838;BME280;65998;46.256;7.534;2023-04-25T00:02:08;86406.13;;;14.82;45.62
43838;BME280;65998;46.256;7.534;2023-04-25T00:04:34;86408.22;;;14.82;45.69
43838;BME280;65998;46.256;7.534;2023-04-25T00:07:00;86408.97;;;14.80;45.70
43838;BME280;65998;46.256;7.534;2023-04-25T00:09:27;86411.66;;;14.82;45.72
43838;BME280;65998;46.256;7.534;2023-04-25T00:11:53;86413.16;;;14.79;45.60
43838;BME280;65998;46.256;7.534;2023-04-25T00:14:18;86405.59;;;14.78;45.64
43838;BME280;65998;46.256;7.534;2023-04-25T00:16:44;86411.13;;;14.78;45.67
43838;BME280;65998;46.256;7.534;2023-04-25T00:19:10;86404.94;;;14.77;45.63
43838;BME280;65998;46.256;7.534;2023-04-25T00:21:36;86409.09;;;14.76;45.57
43838;BME280;65998;46.256;7.534;2023-04-25T00:24:02;86400.81;;;14.76;45.66
43838;BME280;65998;46.256;7.534;2023-04-25T00:26:28;86398.13;;;14.74;45.69
43838;BME280;65998;46.256;7.534;2023-04-25T00:28:54;86397.44;;;14.74;45.69
43838;BME280;65998;46.256;7.534;2023-04-25T00:31:20;86389.88;;;14.72;45.65
43838;BME280;65998;46.256;7.534;2023-04-25T00:33:45;86392.66;;;14.72;45.77
43838;BME280;65998;46.256;7.534;2023-04-25T00:36:11;86392.66;;;14.72;45.64
43838;BME280;65998;46.256;7.534;2023-04-25T00:38:37;86393.41;;;14.71;45.66
43838;BME280;65998;46.256;7.534;2023-04-25T00:41:05;86387.72;;;14.75;45.63
43838;BME280;65998;46.256;7.534;2023-04-25T00:43:32;86387.06;;;14.74;45.63
43838;BME280;65998;46.256;7.534;2023-04-25T00:46:00;86385.63;;;14.75;45.59
43838;BME280;65998;46.256;7.534;2023-04-25T00:48:26;86386.44;;;14.72;45.62
43838;BME280;65998;46.256;7.534;2023-04-25T00:50:54;86377.41;;;14.73;45.48
43838;BME280;65998;46.256;7.534;2023-04-25T00:53:21;86379.50;;;14.73;45.57
43838;BME280;65998;46.256;7.534;2023-04-25T00:55:47;86371.94;;;14.71;45.64
43838;BME280;65998;46.256;7.534;2023-04-25T00:58:14;86369.25;;;14.69;45.70
43838;BME280;65998;46.256;7.534;2023-04-25T01:00:40;86367.84;;;14.70;45.66
43838;BME280;65998;46.256;7.534;2023-04-25T01:03:07;86354.16;;;14.66;45.67
43838;BME280;65998;46.256;7.534;2023-04-25T01:05:33;86359.00;;;14.65;45.65
43838;BME280;65998;46.256;7.534;2023-04-25T01:07:58;86356.91;;;14.66;45.63
43838;BME280;65998;46.256;7.534;2023-04-25T01:10:25;86357.00;;;14.64;45.50
43838;BME280;65998;46.256;7.534;2023-04-25T01:12:50;86357.00;;;14.64;45.67
43838;BME280;65998;46.256;7.534;2023-04-25T01:15:16;86354.97;;;14.62;45.54
43838;BME280;65998;46.256;7.534;2023-04-25T01:17:42;86350.19;;;14.61;45.77
43838;BME280;65998;46.256;7.534;2023-04-25T01:20:08;86345.31;;;14.61;45.79
43838;BME280;65998;46.256;7.534;2023-04-25T01:22:34;86333.66;;;14.59;45.64
43838;BME280;65998;46.256;7.534;2023-04-25T01:25:01;86328.81;;;14.59;45.73
43838;BME280;65998;46.256;7.534;2023-04-25T01:27:27;86323.38;;;14.55;45.63
43838;BME280;65998;46.256;7.534;2023-04-25T01:29:54;86323.34;;;14.57;45.80
43838;BME280;65998;46.256;7.534;2023-04-25T01:32:22;86318.53;;;14.56;45.61
43838;BME280;65998;46.256;7.534;2023-04-25T01:34:48;86323.47;;;14.53;45.66
43838;BME280;65998;46.256;7.534;2023-04-25T01:37:14;86320.09;;;14.51;45.68
43838;BME280;65998;46.256;7.534;2023-04-25T01:39:40;86319.28;;;14.54;45.84
43838;BME280;65998;46.256;7.534;2023-04-25T01:42:06;86309.03;;;14.51;45.52
43838;BME280;65998;46.256;7.534;2023-04-25T01:44:32;86308.44;;;14.48;45.76
43838;BME280;65998;46.256;7.534;2023-04-25T01:46:58;86310.53;;;14.48;45.90
43838;BME280;65998;46.256;7.534;2023-04-25T01:49:24;86312.63;;;14.47;45.76
43838;BME280;65998;46.256;7.534;2023-04-25T01:51:49;86305.06;;;14.46;45.71
43838;BME280;65998;46.256;7.534;2023-04-25T01:54:15;86296.78;;;14.46;45.73
43838;BME280;65998;46.256;7.534;2023-04-25T01:56:42;86302.97;;;14.46;45.82
43838;BME280;65998;46.256;7.534;2023-04-25T01:59:08;86303.72;;;14.45;45.78
43838;BME280;65998;46.256;7.534;2023-04-25T02:01:33;86305.81;;;14.44;45.81
43838;BME280;65998;46.256;7.534;2023-04-25T02:03:59;86302.31;;;14.46;45.66
43838;BME280;65998;46.256;7.534;2023-04-25T02:06:25;86299.53;;;14.46;45.80
43838;BME280;65998;46.256;7.534;2023-04-25T02:08:51;86293.34;;;14.45;45.67
43838;BME280;65998;46.256;7.534;2023-04-25T02:11:17;86291.25;;;14.46;45.65
43838;BME280;65998;46.256;7.534;2023-04-25T02:13:42;86290.56;;;14.45;45.67
43838;BME280;65998;46.256;7.534;2023-04-25T02:16:08;86286.47;;;14.44;45.70
43838;BME280;65998;46.256;7.534;2023-04-25T02:18:34;86284.38;;;14.45;45.73
43838;BME280;65998;46.256;7.534;2023-04-25T02:21:00;86276.16;;;14.43;45.71
43838;BME280;65998;46.256;7.534;2023-04-25T02:23:26;86277.50;;;14.44;45.69
43838;BME280;65998;46.256;7.534;2023-04-25T02:25:52;86267.78;;;14.45;45.78
43838;BME280;65998;46.256;7.534;2023-04-25T02:28:18;86262.31;;;14.43;45.83
43838;BME280;65998;46.256;7.534;2023-04-25T02:30:44;86267.84;;;14.43;45.60
43838;BME280;65998;46.256;7.534;2023-04-25T02:33:10;86269.94;;;14.42;45.51
43838;BME280;65998;46.256;7.534;2023-04-25T02:35:35;86265.81;;;14.41;45.67
43838;BME280;65998;46.256;7.534;2023-04-25T02:38:02;86262.38;;;14.41;45.70
43838;BME280;65998;46.256;7.534;2023-04-25T02:40:27;86257.59;;;14.39;45.49
43838;BME280;65998;46.256;7.534;2023-04-25T02:42:53;86256.19;;;14.40;45.77
43838;BME280;65998;46.256;7.534;2023-04-25T02:45:19;86259.69;;;14.38;45.63
43838;BME280;65998;46.256;7.534;2023-04-25T02:47:45;86268.72;;;14.37;45.75
43838;BME280;65998;46.256;7.534;2023-04-25T02:50:10;86270.81;;;14.36;45.69
43838;BME280;65998;46.256;7.534;2023-04-25T02:52:36;86274.91;;;14.37;45.65
43838;BME280;65998;46.256;7.534;2023-04-25T02:55:02;86273.66;;;14.34;45.65
43838;BME280;65998;46.256;7.534;2023-04-25T02:57:28;86267.44;;;14.34;45.77
43838;BME280;65998;46.256;7.534;2023-04-25T02:59:54;86257.66;;;14.37;45.69
43838;BME280;65998;46.256;7.534;2023-04-25T03:02:20;86259.75;;;14.36;45.56
43838;BME280;65998;46.256;7.534;2023-04-25T03:04:45;86265.28;;;14.36;45.57
43838;BME280;65998;46.256;7.534;2023-04-25T03:07:11;86264.00;;;14.33;45.77
43838;BME280;65998;46.256;7.534;2023-04-25T03:09:37;86264.00;;;14.33;45.59
43838;BME280;65998;46.256;7.534;2023-04-25T03:12:03;86268.13;;;14.34;45.62
43838;BME280;65998;46.256;7.534;2023-04-25T03:14:29;86259.91;;;14.32;45.67
43838;BME280;65998;46.256;7.534;2023-04-25T03:16:55;86264.75;;;14.32;45.61
43838;BME280;65998;46.256;7.534;2023-04-25T03:19:20;86260.66;;;14.31;45.62
43838;BME280;65998;46.256;7.534;2023-04-25T03:21:47;86262.06;;;14.30;45.59
43838;BME280;65998;46.256;7.534;2023-04-25T03:24:12;86263.41;;;14.31;45.68
43838;BME280;65998;46.256;7.534;2023-04-25T03:26:38;86255.13;;;14.31;45.54
43838;BME280;65998;46.256;7.534;2023-04-25T03:29:04;86259.97;;;14.30;45.54
43838;BME280;65998;46.256;7.534;2023-04-25T03:31:30;86248.16;;;14.32;45.62
43838;BME280;65998;46.256;7.534;2023-04-25T03:33:56;86248.31;;;14.28;45.60
43838;BME280;65998;46.256;7.534;2023-04-25T03:36:22;86246.91;;;14.29;45.61
43838;BME280;65998;46.256;7.534;2023-04-25T03:38:47;86249.72;;;14.27;45.62
43838;BME280;65998;46.256;7.534;2023-04-25T03:41:13;86253.91;;;14.26;45.58
43838;BME280;65998;46.256;7.534;2023-04-25T03:43:39;86256.75;;;14.24;45.62
43838;BME280;65998;46.256;7.534;2023-04-25T03:46:05;86258.16;;;14.23;45.58
43838;BME280;65998;46.256;7.534;2023-04-25T03:48:31;86263.63;;;14.25;45.52
43838;BME280;65998;46.256;7.534;2023-04-25T03:50:57;86247.78;;;14.23;45.46
43838;BME280;65998;46.256;7.534;2023-04-25T03:53:22;86249.81;;;14.25;45.57
43838;BME280;65998;46.256;7.534;2023-04-25T03:55:48;86245.09;;;14.21;45.49
43838;BME280;65998;46.256;7.534;2023-04-25T03:58:14;86242.25;;;14.23;45.49
43838;BME280;65998;46.256;7.534;2023-04-25T04:00:40;86250.63;;;14.21;45.59
43838;BME280;65998;46.256;7.534;2023-04-25T04:03:05;86245.09;;;14.21;45.53
43838;BME280;65998;46.256;7.534;2023-04-25T04:05:31;86243.06;;;14.20;45.54
43838;BME280;65998;46.256;7.534;2023-04-25T04:07:57;86240.31;;;14.20;45.47
43838;BME280;65998;46.256;7.534;2023-04-25T04:10:23;86234.78;;;14.20;45.68
43838;BME280;65998;46.256;7.534;2023-04-25T04:12:49;86244.50;;;14.19;45.63
43838;BME280;65998;46.256;7.534;2023-04-25T04:15:14;86242.47;;;14.17;45.50
43838;BME280;65998;46.256;7.534;2023-04-25T04:17:40;86244.56;;;14.17;45.62
43838;BME280;65998;46.256;7.534;2023-04-25T04:20:06;86239.03;;;14.17;45.52
43838;BME280;65998;46.256;7.534;2023-04-25T04:22:32;86233.56;;;14.15;45.47
43838;BME280;65998;46.256;7.534;2023-04-25T04:24:58;86238.44;;;14.14;45.63
43838;BME280;65998;46.256;7.534;2023-04-25T04:27:24;86232.91;;;14.14;45.62
43838;BME280;65998;46.256;7.534;2023-04-25T04:29:50;86232.97;;;14.12;45.52
43838;BME280;65998;46.256;7.534;2023-04-25T04:32:16;86243.97;;;14.14;45.54
43838;BME280;65998;46.256;7.534;2023-04-25T04:34:42;86237.81;;;14.12;45.56
43838;BME280;65998;46.256;7.534;2023-04-25T04:37:07;86235.75;;;14.12;45.59
43838;BME280;65998;46.256;7.534;2023-04-25T04:39:34;86232.97;;;14.12;45.51
43838;BME280;65998;46.256;7.534;2023-04-25T04:41:59;86244.03;;;14.12;45.57
43838;BME280;65998;46.256;7.534;2023-04-25T04:44:25;86243.44;;;14.10;45.54
43838;BME280;65998;46.256;7.534;2023-04-25T04:46:51;86251.03;;;14.09;45.57
43838;BME280;65998;46.256;7.534;2023-04-25T04:49:17;86246.25;;;14.07;45.53
43838;BME280;65998;46.256;7.534;2023-04-25T04:51:43;86246.25;;;14.07;45.53
43838;BME280;65998;46.256;7.534;2023-04-25T04:54:09;86256.63;;;14.07;45.53
43838;BME280;65998;46.256;7.534;2023-04-25T04:56:34;86254.63;;;14.05;45.67
43838;BME280;65998;46.256;7.534;2023-04-25T04:59:00;86256.69;;;14.05;45.62
43838;BME280;65998;46.256;7.534;2023-04-25T05:01:26;86254.63;;;14.05;45.67
43838;BME280;65998;46.256;7.534;2023-04-25T05:03:52;86248.47;;;14.03;45.54
43838;BME280;65998;46.256;7.534;2023-04-25T05:06:19;86255.97;;;14.06;45.59
43838;BME280;65998;46.256;7.534;2023-04-25T05:08:45;86256.78;;;14.03;45.58
43838;BME280;65998;46.256;7.534;2023-04-25T05:11:10;86256.16;;;14.00;45.48
43838;BME280;65998;46.256;7.534;2023-04-25T05:13:37;86258.25;;;14.00;45.66
43838;BME280;65998;46.256;7.534;2023-04-25T05:16:02;86261.69;;;14.00;45.58
43838;BME280;65998;46.256;7.534;2023-04-25T05:18:28;86268.63;;;13.99;45.50
43838;BME280;65998;46.256;7.534;2023-04-25T05:20:54;86273.47;;;13.99;45.66
43838;BME280;65998;46.256;7.534;2023-04-25T05:23:20;86271.47;;;13.97;45.53
43838;BME280;65998;46.256;7.534;2023-04-25T05:25:46;86270.78;;;13.97;45.58
43838;BME280;65998;46.256;7.534;2023-04-25T05:28:12;86273.47;;;13.99;45.52
43838;BME280;65998;46.256;7.534;2023-04-25T05:30:39;86269.38;;;13.98;45.44
43838;BME280;65998;46.256;7.534;2023-04-25T05:33:05;86268.09;;;13.95;45.61
43838;BME280;65998;46.256;7.534;2023-04-25T05:35:31;86268.09;;;13.95;45.56
43838;BME280;65998;46.256;7.534;2023-04-25T05:37:57;86266.06;;;13.93;45.63
43838;BME280;65998;46.256;7.534;2023-04-25T05:40:22;86260.63;;;13.91;45.55
43838;BME280;65998;46.256;7.534;2023-04-25T05:42:48;86264.78;;;13.90;45.63
43838;BME280;65998;46.256;7.534;2023-04-25T05:45:14;86257.19;;;13.91;45.63
43838;BME280;65998;46.256;7.534;2023-04-25T05:47:40;86261.38;;;13.90;45.53
43838;BME280;65998;46.256;7.534;2023-04-25T05:50:06;86259.22;;;13.92;45.61
43838;BME280;65998;46.256;7.534;2023-04-25T05:52:33;86266.22;;;13.89;45.57
43838;BME280;65998;46.256;7.534;2023-04-25T05:54:58;86266.94;;;13.88;45.60
43838;BME280;65998;46.256;7.534;2023-04-25T05:57:26;86261.38;;;13.90;45.51
43838;BME280;65998;46.256;7.534;2023-04-25T05:59:52;86265.59;;;13.87;45.61
43838;BME280;65998;46.256;7.534;2023-04-25T06:02:19;86269.03;;;13.87;45.53
43838;BME280;65998;46.256;7.534;2023-04-25T06:04:45;86262.91;;;13.85;45.57
43838;BME280;65998;46.256;7.534;2023-04-25T06:07:11;86265.66;;;13.85;45.72
43838;BME280;65998;46.256;7.534;2023-04-25T06:09:37;86267.03;;;13.86;45.58
43838;BME280;65998;46.256;7.534;2023-04-25T06:12:03;86266.41;;;13.83;45.56
43838;BME280;65998;46.256;7.534;2023-04-25T06:14:29;86265.75;;;13.83;45.78
43838;BME280;65998;46.256;7.534;2023-04-25T06:16:55;86262.97;;;13.83;45.64
43838;BME280;65998;46.256;7.534;2023-04-25T06:19:20;86273.34;;;13.82;45.57
43838;BME280;65998;46.256;7.534;2023-04-25T06:21:46;86276.19;;;13.80;45.61
43838;BME280;65998;46.256;7.534;2023-04-25T06:24:12;86278.28;;;13.80;45.58
43838;BME280;65998;46.256;7.534;2023-04-25T06:26:38;86279.69;;;13.79;45.63
43838;BME280;65998;46.256;7.534;2023-04-25T06:29:04;86282.50;;;13.77;45.64
43838;BME280;65998;46.256;7.534;2023-04-25T06:31:29;86283.84;;;13.78;45.60
43838;BME280;65998;46.256;7.534;2023-04-25T06:33:55;86289.44;;;13.76;45.69
43838;BME280;65998;46.256;7.534;2023-04-25T06:36:21;86269.50;;;13.73;45.76
43838;BME280;65998;46.256;7.534;2023-04-25T06:38:47;86289.50;;;13.73;45.88
43838;BME280;65998;46.256;7.534;2023-04-25T06:41:12;86288.16;;;13.72;45.61
43838;BME280;65998;46.256;7.534;2023-04-25T06:43:38;86290.94;;;13.72;45.49
43838;BME280;65998;46.256;7.534;2023-04-25T06:46:04;86295.09;;;13.71;45.64
43838;BME280;65998;46.256;7.534;2023-04-25T06:48:30;86299.88;;;13.73;45.68
43838;BME280;65998;46.256;7.534;2023-04-25T06:50:56;86292.34;;;13.71;45.57
43838;BME280;65998;46.256;7.534;2023-04-25T06:53:21;86297.19;;;13.71;45.57
43838;BME280;65998;46.256;7.534;2023-04-25T06:55:47;86298.59;;;13.70;45.62
43838;BME280;65998;46.256;7.534;2023-04-25T06:58:13;86288.97;;;13.69;45.71
43838;BME280;65998;46.256;7.534;2023-04-25T07:00:39;86286.94;;;13.67;45.77
43838;BME280;65998;46.256;7.534;2023-04-25T07:03:04;86289.66;;;13.69;45.56
43838;BME280;65998;46.256;7.534;2023-04-25T07:05:30;86276.56;;;13.68;45.62
43838;BME280;65998;46.256;7.534;2023-04-25T07:07:56;86262.09;;;13.67;45.51
43838;BME280;65998;46.256;7.534;2023-04-25T07:10:22;86258.66;;;13.67;45.56
43838;BME280;65998;46.256;7.534;2023-04-25T07:12:47;86273.22;;;13.65;45.67
43838;BME280;65998;46.256;7.534;2023-04-25T07:15:13;86278.72;;;13.65;45.61
43838;BME280;65998;46.256;7.534;2023-04-25T07:17:39;86284.25;;;13.65;45.66
43838;BME280;65998;46.256;7.534;2023-04-25T07:20:05;86268.38;;;13.66;45.73
43838;BME280;65998;46.256;7.534;2023-04-25T07:22:32;86262.91;;;13.64;45.52
43838;BME280;65998;46.256;7.534;2023-04-25T07:24:58;86262.97;;;13.62;45.75
43838;BME280;65998;46.256;7.534;2023-04-25T07:27:23;86260.22;;;13.62;45.66
43838;BME280;65998;46.256;7.534;2023-04-25T07:29:49;86264.31;;;13.63;45.69
43838;BME280;65998;46.256;7.534;2023-04-25T07:32:15;86275.38;;;13.63;45.62
43838;BME280;65998;46.256;7.534;2023-04-25T07:34:41;86269.91;;;13.61;45.76
43838;BME280;65998;46.256;7.534;2023-04-25T07:37:07;86276.84;;;13.60;45.59
43838;BME280;65998;46.256;7.534;2023-04-25T07:39:33;86272.66;;;13.61;45.63
43838;BME280;65998;46.256;7.534;2023-04-25T07:41:59;86272.66;;;13.61;45.57
43838;BME280;65998;46.256;7.534;2023-04-25T07:44:25;86263.03;;;13.60;45.59
43838;BME280;65998;46.256;7.534;2023-04-25T07:46:50;86258.19;;;13.60;45.77
43838;BME280;65998;46.256;7.534;2023-04-25T07:49:16;86253.41;;;13.59;45.77
43838;BME280;65998;46.256;7.534;2023-04-25T07:51:42;86263.09;;;13.58;45.59
43838;BME280;65998;46.256;7.534;2023-04-25T07:54:08;86265.13;;;13.59;45.76
43838;BME280;65998;46.256;7.534;2023-04-25T07:56:33;86258.25;;;13.58;45.54
43838;BME280;65998;46.256;7.534;2023-04-25T07:59:00;86261.69;;;13.59;45.72
43838;BME280;65998;46.256;7.534;2023-04-25T08:01:25;86268.63;;;13.58;45.73
43838;BME280;65998;46.256;7.534;2023-04-25T08:03:51;86271.38;;;13.58;45.73
43838;BME280;65998;46.256;7.534;2023-04-25T08:06:17;86272.13;;;13.56;45.63
43838;BME280;65998;46.256;7.534;2023-04-25T08:08:43;86276.97;;;13.56;45.66
43838;BME280;65998;46.256;7.534;2023-04-25T08:11:09;86279.00;;;13.57;45.62
43838;BME280;65998;46.256;7.534;2023-04-25T08:13:34;86284.59;;;13.55;45.75
43838;BME280;65998;46.256;7.534;2023-04-25T08:16:00;86288.00;;;13.56;45.78
43838;BME280;65998;46.256;7.534;2023-04-25T08:18:26;86291.44;;;13.56;45.79
43838;BME280;65998;46.256;7.534;2023-04-25T08:20:52;86291.50;;;13.54;45.91
43838;BME280;65998;46.256;7.534;2023-04-25T08:23:18;86291.50;;;13.54;45.81
43838;BME280;65998;46.256;7.534;2023-04-25T08:25:43;86296.34;;;13.54;45.86
43838;BME280;65998;46.256;7.534;2023-04-25T08:28:09;86299.78;;;13.54;45.64
43838;BME280;65998;46.256;7.534;2023-04-25T08:30:36;86300.41;;;13.57;45.78
43838;BME280;65998;46.256;7.534;2023-04-25T08:33:02;86304.63;;;13.54;45.66
43838;BME280;65998;46.256;7.534;2023-04-25T08:35:28;86306.72;;;13.53;45.83
43838;BME280;65998;46.256;7.534;2023-04-25T08:37:54;86319.84;;;13.53;45.76
43838;BME280;65998;46.256;7.534;2023-04-25T08:40:22;86322.56;;;13.55;45.66
43838;BME280;65998;46.256;7.534;2023-04-25T08:42:48;86323.31;;;13.51;45.67
43838;BME280;65998;46.256;7.534;2023-04-25T08:45:15;86331.72;;;13.47;45.76
43838;BME280;65998;46.256;7.534;2023-04-25T08:47:43;86335.69;;;13.54;45.81
43838;BME280;65998;46.256;7.534;2023-04-25T08:50:10;86335.78;;;13.50;45.83
43838;BME280;65998;46.256;7.534;2023-04-25T08:52:43;86335.69;;;13.54;45.74
43838;BME280;65998;46.256;7.534;2023-04-25T08:55:09;86341.97;;;13.51;45.79
43838;BME280;65998;46.256;7.534;2023-04-25T08:57:38;86342.72;;;13.49;45.78
43838;BME280;65998;46.256;7.534;2023-04-25T09:00:05;86357.84;;;13.50;45.77
43838;BME280;65998;46.256;7.534;2023-04-25T09:02:32;86380.00;;;13.48;45.80
43838;BME280;65998;46.256;7.534;2023-04-25T09:04:59;86391.03;;;13.48;45.77
43838;BME280;65998;46.256;7.534;2023-04-25T09:07:25;86392.50;;;13.45;45.79
43838;BME280;65998;46.256;7.534;2023-04-25T09:09:50;86396.69;;;13.44;45.67
43838;BME280;65998;46.256;7.534;2023-04-25T09:12:18;86397.28;;;13.47;46.01
43838;BME280;65998;46.256;7.534;2023-04-25T09:15:01;86411.72;;;13.49;45.80
43838;BME280;65998;46.256;7.534;2023-04-25T09:17:28;86406.38;;;13.43;45.77
43838;BME280;65998;46.256;7.534;2023-04-25T09:19:53;86413.25;;;13.44;45.68
43838;BME280;65998;46.256;7.534;2023-04-25T09:22:19;86411.88;;;13.43;45.77
43838;BME280;65998;46.256;7.534;2023-04-25T09:24:46;86418.81;;;13.42;45.85
43838;BME280;65998;46.256;7.534;2023-04-25T09:27:17;86422.19;;;13.45;45.81
43838;BME280;65998;46.256;7.534;2023-04-25T09:29:43;86424.34;;;13.42;45.84
43838;BME280;65998;46.256;7.534;2023-04-25T09:32:17;86431.75;;;13.48;45.85
43838;BME280;65998;46.256;7.534;2023-04-25T09:34:46;86427.72;;;13.45;45.83
43838;BME280;65998;46.256;7.534;2023-04-25T09:37:12;86426.44;;;13.41;45.85
43838;BME280;65998;46.256;7.534;2023-04-25T09:39:38;86420.84;;;13.43;45.94
43838;BME280;65998;46.256;7.534;2023-04-25T09:42:05;86422.25;;;13.42;45.83
43838;BME280;65998;46.256;7.534;2023-04-25T09:44:31;86420.22;;;13.41;46.19
43838;BME280;65998;46.256;7.534;2023-04-25T09:46:57;86417.47;;;13.41;45.83
43838;BME280;65998;46.256;7.534;2023-04-25T09:49:23;86410.59;;;13.40;45.89
43838;BME280;65998;46.256;7.534;2023-04-25T09:51:57;86404.91;;;13.46;45.72
43838;BME280;65998;46.256;7.534;2023-04-25T09:54:24;86402.25;;;13.42;45.97
43838;BME280;65998;46.256;7.534;2023-04-25T09:56:52;86403.59;;;13.43;45.88
43838;BME280;65998;46.256;7.534;2023-04-25T09:59:20;86411.16;;;13.45;45.65
43838;BME280;65998;46.256;7.534;2023-04-25T10:01:48;86411.88;;;13.43;45.72
43838;BME280;65998;46.256;7.534;2023-04-25T10:04:19;86408.41;;;13.45;45.78
43838;BME280;65998;46.256;7.534;2023-04-25T10:06:45;86409.88;;;13.41;45.91
43838;BME280;65998;46.256;7.534;2023-04-25T10:09:13;86400.91;;;13.41;45.83
43838;BME280;65998;46.256;7.534;2023-04-25T10:11:40;86409.88;;;13.41;46.02
43838;BME280;65998;46.256;7.534;2023-04-25T10:14:06;86403.66;;;13.41;46.03
43838;BME280;65998;46.256;7.534;2023-04-25T10:16:32;86407.09;;;13.41;46.02
43838;BME280;65998;46.256;7.534;2023-04-25T10:18:58;86402.94;;;13.42;46.04
43838;BME280;65998;46.256;7.534;2023-04-25T10:21:25;86398.75;;;13.43;45.95
43838;BME280;65998;46.256;7.534;2023-04-25T10:23:53;86400.19;;;13.42;45.80
43838;BME280;65998;46.256;7.534;2023-04-25T10:26:20;86398.81;;;13.41;45.95
43838;BME280;65998;46.256;7.534;2023-04-25T10:28:58;86391.09;;;13.46;46.03
43838;BME280;65998;46.256;7.534;2023-04-25T10:31:25;86399.50;;;13.42;45.89
43838;BME280;65998;46.256;7.534;2023-04-25T10:33:51;86407.78;;;13.42;46.13
43838;BME280;65998;46.256;7.534;2023-04-25T10:36:22;86395.22;;;13.47;46.06
43838;BME280;65998;46.256;7.534;2023-04-25T10:38:49;86393.25;;;13.43;46.27
43838;BME280;65998;46.256;7.534;2023-04-25T10:41:18;86395.94;;;13.46;46.11
43838;BME280;65998;46.256;7.534;2023-04-25T10:43:44;86389.13;;;13.42;46.25
43838;BME280;65998;46.256;7.534;2023-04-25T10:46:29;86398.66;;;13.48;46.15
43838;BME280;65998;46.256;7.534;2023-04-25T10:48:57;86392.50;;;13.45;46.24
43838;BME280;65998;46.256;7.534;2023-04-25T10:54:00;86403.44;;;13.49;46.22
43838;BME280;65998;46.256;7.534;2023-04-25T11:01:47;86408.94;;;13.49;46.20
43838;BME280;65998;46.256;7.534;2023-04-25T11:04:31;86408.88;;;13.51;46.21
43838;BME280;65998;46.256;7.534;2023-04-25T11:09:32;86413.78;;;13.49;46.15
43838;BME280;65998;46.256;7.534;2023-04-25T11:11:59;86426.91;;;13.48;46.22
43838;BME280;65998;46.256;7.534;2023-04-25T11:14:26;86430.41;;;13.47;46.03
43838;BME280;65998;46.256;7.534;2023-04-25T11:16:56;86417.97;;;13.48;46.42
43838;BME280;65998;46.256;7.534;2023-04-25T11:19:23;86420.72;;;13.48;46.13
43838;BME280;65998;46.256;7.534;2023-04-25T11:21:49;86422.81;;;13.47;46.30
43838;BME280;65998;46.256;7.534;2023-04-25T11:24:18;86431.66;;;13.52;46.23
43838;BME280;65998;46.256;7.534;2023-04-25T11:26:46;86431.66;;;13.52;46.14
43838;BME280;65998;46.256;7.534;2023-04-25T11:29:12;86440.09;;;13.46;46.31
43838;BME280;65998;46.256;7.534;2023-04-25T11:31:38;86449.69;;;13.49;46.33
43838;BME280;65998;46.256;7.534;2023-04-25T11:34:04;86440.72;;;13.48;46.39
43838;BME280;65998;46.256;7.534;2023-04-25T11:36:30;86442.75;;;13.50;46.35
43838;BME280;65998;46.256;7.534;2023-04-25T11:38:56;86437.22;;;13.50;46.29
43838;BME280;65998;46.256;7.534;2023-04-25T11:41:22;86436.53;;;13.49;46.37
43838;BME280;65998;46.256;7.534;2023-04-25T11:43:48;86440.66;;;13.50;46.12
43838;BME280;65998;46.256;7.534;2023-04-25T11:46:15;86440.66;;;13.50;46.26
43838;BME280;65998;46.256;7.534;2023-04-25T11:48:42;86439.25;;;13.51;46.01
43838;BME280;65998;46.256;7.534;2023-04-25T11:51:08;86444.09;;;13.51;46.28
43838;BME280;65998;46.256;7.534;2023-04-25T11:53:34;86437.91;;;13.50;46.29
43838;BME280;65998;46.256;7.534;2023-04-25T11:56:01;86426.84;;;13.50;46.31
43838;BME280;65998;46.256;7.534;2023-04-25T11:58:27;86430.25;;;13.53;46.13
43838;BME280;65998;46.256;7.534;2023-04-25T12:00:53;86436.50;;;13.51;46.14
43838;BME280;65998;46.256;7.534;2023-04-25T12:03:18;86427.50;;;13.53;46.33
43838;BME280;65998;46.256;7.534;2023-04-25T12:05:45;86432.97;;;13.55;46.49
43838;BME280;65998;46.256;7.534;2023-04-25T12:08:17;86436.34;;;13.57;46.19
43838;BME280;65998;46.256;7.534;2023-04-25T12:10:45;86434.25;;;13.58;46.32
43838;BME280;65998;46.256;7.534;2023-04-25T12:13:21;86436.94;;;13.60;46.06
43838;BME280;65998;46.256;7.534;2023-04-25T12:15:47;86446.81;;;13.53;46.30
43838;BME280;65998;46.256;7.534;2023-04-25T12:18:13;86445.34;;;13.56;46.12
43838;BME280;65998;46.256;7.534;2023-04-25T12:20:39;86445.34;;;13.56;46.35
43838;BME280;65998;46.256;7.534;2023-04-25T12:23:07;86448.00;;;13.60;46.18
43838;BME280;65998;46.256;7.534;2023-04-25T12:25:38;86438.31;;;13.61;46.26
43838;BME280;65998;46.256;7.534;2023-04-25T12:28:17;86443.09;;;13.62;46.23
43838;BME280;65998;46.256;7.534;2023-04-25T12:33:24;86452.91;;;13.57;46.29
43838;BME280;65998;46.256;7.534;2023-04-25T12:35:50;86452.16;;;13.59;46.42
43838;BME280;65998;46.256;7.534;2023-04-25T12:38:25;86455.41;;;13.65;46.21
43838;BME280;65998;46.256;7.534;2023-04-25T12:40:52;86464.50;;;13.62;46.25
43838;BME280;65998;46.256;7.534;2023-04-25T12:43:17;86456.22;;;13.62;46.14
43838;BME280;65998;46.256;7.534;2023-04-25T12:45:45;86458.25;;;13.63;46.15
43838;BME280;65998;46.256;7.534;2023-04-25T12:48:12;86450.69;;;13.62;46.11
43838;BME280;65998;46.256;7.534;2023-04-25T12:50:38;86458.97;;;13.62;46.11
43838;BME280;65998;46.256;7.534;2023-04-25T12:53:04;86456.81;;;13.64;46.20
43838;BME280;65998;46.256;7.534;2023-04-25T12:55:30;86449.91;;;13.65;46.12
43838;BME280;65998;46.256;7.534;2023-04-25T12:57:55;86458.84;;;13.66;46.23
43838;BME280;65998;46.256;7.534;2023-04-25T13:00:21;86463.69;;;13.65;46.14
43838;BME280;65998;46.256;7.534;2023-04-25T13:02:47;86459.53;;;13.66;46.18
43838;BME280;65998;46.256;7.534;2023-04-25T13:05:13;86458.13;;;13.67;46.11
43838;BME280;65998;46.256;7.534;2023-04-25T13:07:39;86465.06;;;13.66;46.05
43838;BME280;65998;46.256;7.534;2023-04-25T13:10:06;86463.59;;;13.69;46.18